Time;durP1;ratioP1;P1;durP2;ratioP2;P2;SDS_P1;SDS_P2;PMS_P1;PMS_P2;Temp;Humidity;BMP_temperature;BMP_pressure;BME280_temperature;BME280_humidity;BME280_pressure;Samples;Min_cycle;Max_cycle;Signal;HPM_P1;HPM_P2
2021/01/13 00:00:03;;;;;;;29.37;16.10;;;;;;;;;;752860;184;999185;-69
2021/01/13 00:02:29;;;;;;;34.43;16.70;;;;;;;;;;747394;186;914861;-71
2021/01/13 00:04:55;;;;;;;24.60;14.57;;;;;;;;;;749619;183;1022176;-71
2021/01/13 00:07:21;;;;;;;26.20;17.73;;;;;;;;;;757846;183;919930;-69
2021/01/13 00:09:47;;;;;;;24.83;14.33;;;;;;;;;;760281;183;914044;-70
2021/01/13 00:12:12;;;;;;;25.83;15.10;;;;;;;;;;753411;184;920358;-72
2021/01/13 00:14:38;;;;;;;24.80;15.80;;;;;;;;;;754918;183;914706;-71
2021/01/13 00:17:04;;;;;;;23.50;14.73;;;;;;;;;;762658;183;913663;-70
2021/01/13 00:19:30;;;;;;;25.93;16.60;;;;;;;;;;754783;183;916709;-71
2021/01/13 00:21:56;;;;;;;22.70;13.90;;;;;;;;;;754624;183;922050;-71
2021/01/13 00:24:22;;;;;;;28.03;14.63;;;;;;;;;;759165;183;917775;-70
2021/01/13 00:26:47;;;;;;;28.27;15.40;;;;;;;;;;752383;183;918938;-71
2021/01/13 00:29:14;;;;;;;24.43;13.80;;;;;;;;;;752555;182;918859;-74
2021/01/13 00:31:39;;;;;;;21.30;13.43;;;;;;;;;;754602;182;917918;-71
2021/01/13 00:34:06;;;;;;;20.47;12.23;;;;;;;;;;760895;184;918232;-70
2021/01/13 00:36:32;;;;;;;18.40;10.60;;;;;;;;;;738890;186;2886424;-70
2021/01/13 00:38:58;;;;;;;18.05;12.77;;;;;;;;;;753315;184;918933;-71
2021/01/13 00:41:24;;;;;;;22.23;10.70;;;;;;;;;;757815;183;919021;-70
2021/01/13 00:43:49;;;;;;;18.83;10.67;;;;;;;;;;754093;184;919255;-71
2021/01/13 00:46:15;;;;;;;14.40;8.97;;;;;;;;;;750963;183;918971;-70
2021/01/13 00:48:41;;;;;;;14.10;10.27;;;;;;;;;;753766;185;918775;-71
2021/01/13 00:51:07;;;;;;;22.10;10.80;;;;;;;;;;750531;184;918768;-70
2021/01/13 00:53:33;;;;;;;15.17;9.70;;;;;;;;;;751093;184;919381;-72
2021/01/13 00:55:59;;;;;;;13.37;8.27;;;;;;;;;;747704;184;919452;-70
2021/01/13 00:58:25;;;;;;;16.47;8.73;;;;;;;;;;749853;187;918842;-71
2021/01/13 01:00:50;;;;;;;17.60;9.13;;;;;;;;;;750809;184;921277;-71
2021/01/13 01:03:17;;;;;;;16.93;10.07;;;;;;;;;;758006;183;918597;-71
2021/01/13 01:05:43;;;;;;;15.27;9.80;;;;;;;;;;760584;183;918461;-71
2021/01/13 01:08:09;;;;;;;17.20;10.20;;;;;;;;;;755009;184;921546;-71
2021/01/13 01:10:34;;;;;;;16.23;9.83;;;;;;;;;;747247;185;918752;-72
2021/01/13 01:13:00;;;;;;;19.40;11.80;;;;;;;;;;750042;185;918965;-72
2021/01/13 01:15:26;;;;;;;19.33;10.33;;;;;;;;;;751461;184;917667;-72
2021/01/13 01:17:52;;;;;;;20.13;11.10;;;;;;;;;;749307;185;920112;-71
2021/01/13 01:20:18;;;;;;;17.90;10.90;;;;;;;;;;758181;184;918638;-68
2021/01/13 01:22:57;;;;;;;16.83;9.50;;;;;;;;;;748445;186;1390531;-71
2021/01/13 01:25:23;;;;;;;20.63;10.50;;;;;;;;;;753957;182;919158;-71
2021/01/13 01:27:49;;;;;;;16.07;8.93;;;;;;;;;;753700;183;918261;-70
2021/01/13 01:30:15;;;;;;;17.77;10.30;;;;;;;;;;753367;184;919342;-70
2021/01/13 01:32:41;;;;;;;10.70;7.63;;;;;;;;;;752401;185;919377;-71
2021/01/13 01:35:07;;;;;;;13.53;8.93;;;;;;;;;;755231;184;918153;-71
2021/01/13 01:37:34;;;;;;;12.80;8.37;;;;;;;;;;753353;182;918786;-71
2021/01/13 01:39:59;;;;;;;12.40;8.30;;;;;;;;;;755862;183;919381;-70
2021/01/13 01:42:25;;;;;;;13.40;8.80;;;;;;;;;;745238;183;1424062;-70
2021/01/13 01:44:51;;;;;;;13.87;8.27;;;;;;;;;;755439;183;918886;-71
2021/01/13 01:47:17;;;;;;;15.40;8.70;;;;;;;;;;760277;183;919194;-70
2021/01/13 01:49:42;;;;;;;14.60;9.37;;;;;;;;;;753621;183;918648;-71
2021/01/13 01:52:09;;;;;;;14.30;9.07;;;;;;;;;;751553;184;936204;-71
2021/01/13 01:54:35;;;;;;;21.83;8.82;;;;;;;;;;752696;183;919066;-70
2021/01/13 01:57:01;;;;;;;16.47;8.33;;;;;;;;;;742349;185;918872;-70
2021/01/13 01:59:33;;;;;;;9.83;6.70;;;;;;;;;;726237;189;919083;-70
2021/01/13 02:01:59;;;;;;;11.27;7.77;;;;;;;;;;754927;183;919315;-69
2021/01/13 02:04:32;;;;;;;8.37;6.43;;;;;;;;;;755010;183;2039249;-71
2021/01/13 02:07:08;;;;;;;13.35;7.03;;;;;;;;;;767039;182;918840;-71
2021/01/13 02:09:34;;;;;;;8.70;6.37;;;;;;;;;;739249;184;919278;-70
2021/01/13 02:11:59;;;;;;;12.30;6.57;;;;;;;;;;749079;183;920094;-70
2021/01/13 02:14:27;;;;;;;8.70;6.35;;;;;;;;;;756738;183;917921;-72
2021/01/13 02:16:53;;;;;;;12.90;5.83;;;;;;;;;;759543;183;920441;-71
2021/01/13 02:19:19;;;;;;;8.18;5.25;;;;;;;;;;748340;184;918560;-70
2021/01/13 02:21:45;;;;;;;12.87;6.20;;;;;;;;;;745925;184;920288;-70
2021/01/13 02:24:12;;;;;;;8.97;5.43;;;;;;;;;;753872;184;919011;-71
2021/01/13 02:26:56;;;;;;;7.10;4.70;;;;;;;;;;753444;183;920900;-70
2021/01/13 02:29:26;;;;;;;6.75;4.78;;;;;;;;;;747453;183;1018577;-70
2021/01/13 02:32:02;;;;;;;8.43;5.00;;;;;;;;;;751589;183;915547;-70
2021/01/13 02:34:29;;;;;;;10.27;6.33;;;;;;;;;;752982;182;920292;-70
2021/01/13 02:37:13;;;;;;;8.43;5.70;;;;;;;;;;762380;182;928432;-70
2021/01/13 02:39:39;;;;;;;6.77;4.70;;;;;;;;;;758225;182;911983;-70
2021/01/13 02:42:05;;;;;;;8.27;5.07;;;;;;;;;;764931;183;919243;-70
2021/01/13 02:44:31;;;;;;;9.70;5.03;;;;;;;;;;757783;183;918946;-70
2021/01/13 02:46:59;;;;;;;8.10;4.90;;;;;;;;;;755271;183;1021599;-69
2021/01/13 02:49:26;;;;;;;13.93;5.20;;;;;;;;;;759075;184;918656;-70
2021/01/13 02:52:00;;;;;;;6.70;4.30;;;;;;;;;;754140;183;918026;-70
2021/01/13 02:54:29;;;;;;;10.50;4.30;;;;;;;;;;753151;183;918812;-69
2021/01/13 02:56:54;;;;;;;6.53;3.87;;;;;;;;;;750335;183;919154;-70
2021/01/13 02:59:20;;;;;;;7.43;4.60;;;;;;;;;;761054;184;918708;-69
2021/01/13 03:01:46;;;;;;;5.93;4.40;;;;;;;;;;751785;183;917362;-69
2021/01/13 03:04:12;;;;;;;7.63;5.63;;;;;;;;;;756526;183;918986;-69
2021/01/13 03:06:38;;;;;;;10.13;7.10;;;;;;;;;;760943;183;918508;-69
2021/01/13 03:09:04;;;;;;;9.90;6.27;;;;;;;;;;756467;183;918397;-69
2021/01/13 03:11:30;;;;;;;8.80;6.60;;;;;;;;;;748905;183;1224960;-70
2021/01/13 03:13:57;;;;;;;9.02;5.57;;;;;;;;;;760045;184;918352;-70
2021/01/13 03:16:23;;;;;;;8.90;6.07;;;;;;;;;;753409;184;919472;-70
2021/01/13 03:18:54;;;;;;;11.67;6.07;;;;;;;;;;754965;183;919148;-69
2021/01/13 03:21:20;;;;;;;9.83;6.50;;;;;;;;;;754746;183;918522;-69
2021/01/13 03:23:46;;;;;;;10.90;5.83;;;;;;;;;;759629;183;919057;-69
2021/01/13 03:26:12;;;;;;;7.83;4.87;;;;;;;;;;752160;183;919206;-69
2021/01/13 03:28:38;;;;;;;8.30;5.12;;;;;;;;;;754268;184;919366;-70
2021/01/13 03:31:04;;;;;;;7.87;5.27;;;;;;;;;;755654;185;920771;-69
2021/01/13 03:33:46;;;;;;;11.13;5.50;;;;;;;;;;747203;183;1686070;-69
2021/01/13 03:36:12;;;;;;;13.23;5.60;;;;;;;;;;753071;184;918467;-69
2021/01/13 03:38:38;;;;;;;10.70;5.17;;;;;;;;;;751179;184;918622;-70
2021/01/13 03:41:04;;;;;;;8.13;5.07;;;;;;;;;;751609;183;1021257;-68
2021/01/13 03:43:34;;;;;;;7.00;3.97;;;;;;;;;;755789;182;920256;-68
2021/01/13 03:45:59;;;;;;;13.00;3.97;;;;;;;;;;762806;182;919036;-69
2021/01/13 03:48:28;;;;;;;9.83;4.50;;;;;;;;;;750525;184;918525;-69
2021/01/13 03:50:55;;;;;;;5.32;3.47;;;;;;;;;;756965;183;917133;-69
2021/01/13 03:53:20;;;;;;;7.50;4.70;;;;;;;;;;755273;183;920849;-69
2021/01/13 03:55:46;;;;;;;5.67;4.77;;;;;;;;;;749244;182;916331;-69
2021/01/13 03:58:12;;;;;;;10.57;4.63;;;;;;;;;;753654;183;912590;-69
2021/01/13 04:00:40;;;;;;;4.70;3.20;;;;;;;;;;745472;186;912983;-72
2021/01/13 04:03:11;;;;;;;9.87;4.77;;;;;;;;;;750702;183;913100;-69
2021/01/13 04:05:37;;;;;;;5.50;3.93;;;;;;;;;;757194;183;919581;-69
2021/01/13 04:08:03;;;;;;;7.00;4.00;;;;;;;;;;758700;183;918311;-69
2021/01/13 04:10:29;;;;;;;7.17;4.40;;;;;;;;;;754594;184;919043;-68
2021/01/13 04:12:55;;;;;;;7.57;4.30;;;;;;;;;;750345;183;919301;-69
2021/01/13 04:15:21;;;;;;;5.87;4.50;;;;;;;;;;748097;185;919454;-69
2021/01/13 04:17:47;;;;;;;6.43;3.83;;;;;;;;;;749508;186;918506;-69
2021/01/13 04:20:13;;;;;;;5.87;4.30;;;;;;;;;;750910;183;962002;-69
2021/01/13 04:22:39;;;;;;;9.00;5.30;;;;;;;;;;754839;183;919159;-68
2021/01/13 04:25:05;;;;;;;6.33;4.43;;;;;;;;;;754924;183;919583;-69
2021/01/13 04:27:31;;;;;;;5.70;3.90;;;;;;;;;;755439;183;918873;-69
2021/01/13 04:29:57;;;;;;;6.53;3.83;;;;;;;;;;752402;183;924842;-68
2021/01/13 04:32:23;;;;;;;4.47;3.30;;;;;;;;;;759893;184;918209;-69
2021/01/13 04:34:49;;;;;;;6.17;4.47;;;;;;;;;;753937;183;918094;-69
2021/01/13 04:37:15;;;;;;;5.62;3.47;;;;;;;;;;757541;182;923373;-69
2021/01/13 04:39:41;;;;;;;8.13;5.10;;;;;;;;;;747802;183;1296463;-68
2021/01/13 04:42:08;;;;;;;6.93;4.03;;;;;;;;;;756551;184;920694;-69
2021/01/13 04:44:34;;;;;;;6.90;3.90;;;;;;;;;;753023;184;917706;-69
2021/01/13 04:47:03;;;;;;;6.87;3.57;;;;;;;;;;754668;183;920883;-68
2021/01/13 04:49:29;;;;;;;5.60;3.60;;;;;;;;;;757114;183;1028950;-69
2021/01/13 04:51:55;;;;;;;4.75;3.45;;;;;;;;;;756162;183;918378;-69
2021/01/13 04:54:23;;;;;;;5.67;3.40;;;;;;;;;;755236;184;918897;-69
2021/01/13 04:56:52;;;;;;;6.32;4.00;;;;;;;;;;758731;183;1024065;-66
2021/01/13 04:59:36;;;;;;;7.17;4.13;;;;;;;;;;757473;184;919581;-69
2021/01/13 05:02:04;;;;;;;13.10;4.70;;;;;;;;;;761846;182;1020551;-69
2021/01/13 05:04:49;;;;;;;8.33;4.80;;;;;;;;;;764014;182;915799;-69
2021/01/13 05:07:34;;;;;;;6.90;3.60;;;;;;;;;;759569;180;915923;-69
2021/01/13 05:10:05;;;;;;;4.00;3.23;;;;;;;;;;761719;183;915636;-69
2021/01/13 05:12:47;;;;;;;7.73;4.07;;;;;;;;;;760397;183;919476;-69
2021/01/13 05:15:16;;;;;;;11.43;4.20;;;;;;;;;;748477;183;921483;-69
2021/01/13 05:18:00;;;;;;;5.80;3.50;;;;;;;;;;751854;183;936491;-69
2021/01/13 05:20:28;;;;;;;4.13;3.60;;;;;;;;;;749758;184;919111;-69
2021/01/13 05:22:54;;;;;;;5.43;3.22;;;;;;;;;;761756;184;918841;-71
2021/01/13 05:25:22;;;;;;;4.60;3.50;;;;;;;;;;753625;183;931973;-69
2021/01/13 05:27:48;;;;;;;7.33;3.30;;;;;;;;;;744268;184;918250;-69
2021/01/13 05:30:14;;;;;;;9.77;4.13;;;;;;;;;;755622;182;919177;-69
2021/01/13 05:32:40;;;;;;;4.73;3.00;;;;;;;;;;757771;183;918688;-69
2021/01/13 05:35:07;;;;;;;5.00;4.10;;;;;;;;;;757611;184;931949;-69
2021/01/13 05:37:35;;;;;;;9.23;3.50;;;;;;;;;;747111;185;919530;-68
2021/01/13 05:40:01;;;;;;;11.13;4.23;;;;;;;;;;756981;184;918574;-68
2021/01/13 05:42:27;;;;;;;7.27;3.60;;;;;;;;;;752740;183;918344;-68
2021/01/13 05:44:53;;;;;;;7.43;4.10;;;;;;;;;;747750;183;816126;-68
2021/01/13 05:47:25;;;;;;;7.35;4.75;;;;;;;;;;755844;183;917920;-67
2021/01/13 05:49:51;;;;;;;8.03;4.27;;;;;;;;;;766434;183;920293;-68
2021/01/13 05:52:17;;;;;;;7.33;4.07;;;;;;;;;;755855;183;919026;-69
2021/01/13 05:54:43;;;;;;;8.03;3.53;;;;;;;;;;752907;184;919090;-68
2021/01/13 05:57:09;;;;;;;4.00;3.47;;;;;;;;;;755215;183;919258;-69
2021/01/13 05:59:36;;;;;;;6.40;3.83;;;;;;;;;;752942;184;918466;-68
2021/01/13 06:02:02;;;;;;;9.33;3.87;;;;;;;;;;753838;184;918979;-70
2021/01/13 06:04:28;;;;;;;9.85;6.03;;;;;;;;;;758385;184;918682;-68
2021/01/13 06:07:09;;;;;;;18.93;9.93;;;;;;;;;;759955;184;918978;-69
2021/01/13 06:09:40;;;;;;;17.03;10.60;;;;;;;;;;763803;183;915694;-68
2021/01/13 06:12:05;;;;;;;23.20;13.20;;;;;;;;;;758535;181;913794;-68
2021/01/13 06:14:31;;;;;;;11.77;5.87;;;;;;;;;;753237;184;919070;-68
2021/01/13 06:17:04;;;;;;;8.43;4.03;;;;;;;;;;762773;183;939644;-68
2021/01/13 06:19:23;;;;;;;12.43;3.40;;;;;;;;;;751043;184;917948;-68
2021/01/13 06:22:04;;;;;;;7.70;3.80;;;;;;;;;;758174;183;918716;-69
2021/01/13 06:24:30;;;;;;;7.27;4.40;;;;;;;;;;754317;183;859697;-68
2021/01/13 06:26:56;;;;;;;6.97;3.80;;;;;;;;;;760242;183;919473;-68
2021/01/13 06:29:37;;;;;;;7.10;4.00;;;;;;;;;;750648;184;918662;-69
2021/01/13 06:32:03;;;;;;;9.43;3.97;;;;;;;;;;747768;184;918232;-67
2021/01/13 06:34:29;;;;;;;5.62;4.20;;;;;;;;;;752071;183;1012294;-68
2021/01/13 06:36:58;;;;;;;7.37;5.07;;;;;;;;;;758222;182;919176;-68
2021/01/13 06:39:23;;;;;;;5.50;3.97;;;;;;;;;;762921;182;1011906;-68
2021/01/13 06:41:49;;;;;;;8.40;4.10;;;;;;;;;;755562;182;919131;-68
2021/01/13 06:44:16;;;;;;;9.00;4.53;;;;;;;;;;751516;183;919338;-67
2021/01/13 06:46:41;;;;;;;6.13;3.60;;;;;;;;;;763999;183;886219;-68
2021/01/13 06:49:11;;;;;;;6.80;3.93;;;;;;;;;;753176;183;919088;-68
2021/01/13 06:51:36;;;;;;;6.60;3.63;;;;;;;;;;752480;184;919194;-69
2021/01/13 06:54:03;;;;;;;7.17;4.17;;;;;;;;;;758876;182;916653;-68
2021/01/13 06:56:28;;;;;;;8.50;4.40;;;;;;;;;;759175;183;972040;-67
2021/01/13 06:59:01;;;;;;;6.43;4.23;;;;;;;;;;756306;184;919041;-68
2021/01/13 07:01:27;;;;;;;8.73;4.27;;;;;;;;;;750551;184;918906;-68
2021/01/13 07:03:58;;;;;;;7.70;3.70;;;;;;;;;;757278;184;889133;-67
2021/01/13 07:06:24;;;;;;;4.77;3.50;;;;;;;;;;753765;183;920452;-67
2021/01/13 07:08:50;;;;;;;10.77;3.90;;;;;;;;;;753232;183;919051;-68
2021/01/13 07:11:16;;;;;;;5.57;3.40;;;;;;;;;;753402;183;919531;-68
2021/01/13 07:13:42;;;;;;;5.87;4.00;;;;;;;;;;760499;183;918885;-68
2021/01/13 07:16:08;;;;;;;8.65;4.32;;;;;;;;;;749156;184;1126614;-67
2021/01/13 07:18:33;;;;;;;8.77;4.47;;;;;;;;;;755816;183;914696;-68
2021/01/13 07:21:05;;;;;;;7.47;4.57;;;;;;;;;;756807;184;915386;-68
2021/01/13 07:23:31;;;;;;;16.10;5.17;;;;;;;;;;757548;182;917909;-67
2021/01/13 07:25:58;;;;;;;10.50;5.07;;;;;;;;;;753557;183;918989;-68
2021/01/13 07:28:23;;;;;;;9.17;4.80;;;;;;;;;;758313;183;918479;-68
2021/01/13 07:30:48;;;;;;;7.93;4.37;;;;;;;;;;766163;183;919219;-67
2021/01/13 07:33:14;;;;;;;11.63;5.23;;;;;;;;;;754254;183;919682;-68
2021/01/13 07:35:45;;;;;;;6.65;4.15;;;;;;;;;;748804;183;1427738;-68
2021/01/13 07:38:10;;;;;;;8.80;4.60;;;;;;;;;;765337;183;915159;-67
2021/01/13 07:40:36;;;;;;;15.73;5.50;;;;;;;;;;754601;184;926203;-67
2021/01/13 07:43:03;;;;;;;6.80;4.23;;;;;;;;;;755379;183;918460;-68
2021/01/13 07:45:30;;;;;;;12.50;5.70;;;;;;;;;;758389;183;919119;-67
2021/01/13 07:48:12;;;;;;;12.47;5.90;;;;;;;;;;758192;183;919722;-67
2021/01/13 07:50:40;;;;;;;10.70;6.60;;;;;;;;;;761807;182;918641;-67
2021/01/13 07:53:06;;;;;;;12.83;5.37;;;;;;;;;;740881;183;919240;-67
2021/01/13 07:55:32;;;;;;;10.77;5.47;;;;;;;;;;733766;188;918892;-67
2021/01/13 07:57:59;;;;;;;10.10;5.20;;;;;;;;;;733040;188;919070;-68
2021/01/13 08:00:31;;;;;;;12.50;5.80;;;;;;;;;;730983;188;919129;-67
2021/01/13 08:03:11;;;;;;;29.63;5.50;;;;;;;;;;727910;188;919730;-68
2021/01/13 08:05:42;;;;;;;13.37;6.20;;;;;;;;;;734088;187;919131;-67
2021/01/13 08:08:08;;;;;;;10.27;5.20;;;;;;;;;;728969;188;918628;-67
2021/01/13 08:10:34;;;;;;;11.20;5.57;;;;;;;;;;760170;184;913818;-67
2021/01/13 08:13:00;;;;;;;14.60;5.33;;;;;;;;;;749591;183;918823;-68
2021/01/13 08:15:31;;;;;;;6.53;4.90;;;;;;;;;;750371;183;919217;-68
2021/01/13 08:18:09;;;;;;;9.45;4.40;;;;;;;;;;753679;183;919075;-67
2021/01/13 08:20:34;;;;;;;7.27;5.13;;;;;;;;;;753874;186;918717;-68
2021/01/13 08:23:02;;;;;;;9.10;5.80;;;;;;;;;;750185;184;1076464;-70
2021/01/13 08:25:27;;;;;;;9.50;5.23;;;;;;;;;;751367;184;918826;-67
2021/01/13 08:27:55;;;;;;;15.27;6.32;;;;;;;;;;748250;183;918840;-66
2021/01/13 08:30:21;;;;;;;14.63;5.20;;;;;;;;;;767361;182;918103;-68
2021/01/13 08:32:47;;;;;;;8.40;5.50;;;;;;;;;;760127;182;919178;-68
2021/01/13 08:35:14;;;;;;;12.93;5.20;;;;;;;;;;753460;182;918956;-68
2021/01/13 08:37:40;;;;;;;9.67;5.93;;;;;;;;;;761650;183;918989;-68
2021/01/13 08:40:25;;;;;;;9.00;5.03;;;;;;;;;;752069;183;924464;-68
2021/01/13 08:42:50;;;;;;;7.47;5.40;;;;;;;;;;752774;184;918935;-68
2021/01/13 08:45:17;;;;;;;13.47;5.03;;;;;;;;;;748284;183;1149580;-68
2021/01/13 08:47:43;;;;;;;7.07;5.40;;;;;;;;;;751241;183;919072;-68
2021/01/13 08:50:11;;;;;;;9.80;6.12;;;;;;;;;;760023;183;919074;-68
2021/01/13 08:52:54;;;;;;;11.63;6.80;;;;;;;;;;758520;182;919323;-69
2021/01/13 08:55:20;;;;;;;9.87;6.40;;;;;;;;;;750471;182;927352;-69
2021/01/13 08:57:49;;;;;;;14.00;8.17;;;;;;;;;;754708;183;918172;-68
2021/01/13 09:00:15;;;;;;;21.50;10.10;;;;;;;;;;758824;184;932685;-69
2021/01/13 09:02:46;;;;;;;14.50;10.23;;;;;;;;;;751592;183;919104;-68
2021/01/13 09:05:13;;;;;;;15.43;9.57;;;;;;;;;;754227;183;1020871;-69
2021/01/13 09:07:46;;;;;;;12.30;8.98;;;;;;;;;;754967;184;918696;-68
2021/01/13 09:10:12;;;;;;;21.73;10.73;;;;;;;;;;756721;184;1046455;-68
2021/01/13 09:12:39;;;;;;;16.53;10.57;;;;;;;;;;753567;184;918935;-69
2021/01/13 09:15:10;;;;;;;22.03;9.53;;;;;;;;;;752767;183;1143977;-69
2021/01/13 09:17:38;;;;;;;19.95;9.93;;;;;;;;;;751979;183;918217;-69
2021/01/13 09:20:07;;;;;;;14.20;7.30;;;;;;;;;;755889;184;918804;-69
2021/01/13 09:22:38;;;;;;;15.60;7.43;;;;;;;;;;755938;184;918437;-69
2021/01/13 09:25:05;;;;;;;9.70;6.80;;;;;;;;;;750408;184;919164;-69
2021/01/13 09:27:33;;;;;;;16.37;7.50;;;;;;;;;;753238;183;919016;-69
2021/01/13 09:30:02;;;;;;;13.33;7.00;;;;;;;;;;757107;184;919826;-69
2021/01/13 09:32:28;;;;;;;13.93;7.27;;;;;;;;;;757171;183;914531;-69
2021/01/13 09:34:54;;;;;;;12.27;6.63;;;;;;;;;;757708;183;921342;-69
2021/01/13 09:37:21;;;;;;;13.87;7.27;;;;;;;;;;746641;185;1017947;-72
2021/01/13 09:39:51;;;;;;;20.77;9.30;;;;;;;;;;759825;182;919112;-69
2021/01/13 09:42:17;;;;;;;18.27;9.13;;;;;;;;;;754918;183;920637;-70
2021/01/13 09:44:43;;;;;;;16.90;7.47;;;;;;;;;;756743;183;917741;-70
2021/01/13 09:47:15;;;;;;;11.80;7.13;;;;;;;;;;757064;183;920931;-70
2021/01/13 09:49:41;;;;;;;11.60;6.27;;;;;;;;;;770643;182;1022531;-71
2021/01/13 09:52:07;;;;;;;12.63;6.30;;;;;;;;;;756973;182;908153;-70
2021/01/13 09:54:33;;;;;;;9.90;5.20;;;;;;;;;;755001;183;919551;-69
2021/01/13 09:56:59;;;;;;;14.90;6.10;;;;;;;;;;759219;183;916552;-71
2021/01/13 09:59:25;;;;;;;12.73;5.50;;;;;;;;;;752359;184;918003;-70
2021/01/13 10:01:50;;;;;;;8.50;5.30;;;;;;;;;;752322;183;919102;-71
2021/01/13 10:04:16;;;;;;;14.50;6.90;;;;;;;;;;755761;184;916115;-70
2021/01/13 10:06:42;;;;;;;9.67;6.03;;;;;;;;;;751612;182;918666;-70
2021/01/13 10:09:08;;;;;;;12.20;5.80;;;;;;;;;;749075;183;916940;-70
2021/01/13 10:11:35;;;;;;;9.90;5.77;;;;;;;;;;759528;183;917864;-70
2021/01/13 10:14:01;;;;;;;8.17;5.63;;;;;;;;;;765958;182;916852;-70
2021/01/13 10:16:27;;;;;;;10.57;6.60;;;;;;;;;;757286;182;918791;-70
2021/01/13 10:18:54;;;;;;;14.50;6.37;;;;;;;;;;754307;183;918034;-70
2021/01/13 10:21:20;;;;;;;12.10;6.50;;;;;;;;;;763743;183;920701;-69
2021/01/13 10:23:46;;;;;;;10.93;7.13;;;;;;;;;;753300;183;964460;-69
2021/01/13 10:26:12;;;;;;;12.60;5.53;;;;;;;;;;758356;183;919349;-69
2021/01/13 10:28:38;;;;;;;9.82;5.65;;;;;;;;;;754463;184;919473;-68
2021/01/13 10:31:03;;;;;;;9.67;6.40;;;;;;;;;;758796;183;918970;-68
2021/01/13 10:33:35;;;;;;;11.23;6.20;;;;;;;;;;748330;184;920413;-68
2021/01/13 10:36:01;;;;;;;12.87;6.67;;;;;;;;;;752634;183;917897;-67
2021/01/13 10:38:27;;;;;;;7.83;5.10;;;;;;;;;;756750;184;898262;-67
2021/01/13 10:40:53;;;;;;;10.87;6.07;;;;;;;;;;755864;184;915624;-67
2021/01/13 10:43:19;;;;;;;13.87;7.57;;;;;;;;;;753155;184;915560;-69
2021/01/13 10:45:45;;;;;;;13.80;6.07;;;;;;;;;;760483;184;915466;-66
2021/01/13 10:48:11;;;;;;;12.57;6.43;;;;;;;;;;753061;183;914887;-68
2021/01/13 10:50:37;;;;;;;16.20;7.50;;;;;;;;;;753887;183;918940;-67
2021/01/13 10:53:03;;;;;;;9.67;5.37;;;;;;;;;;761258;184;938124;-67
2021/01/13 10:55:30;;;;;;;13.07;6.80;;;;;;;;;;755563;183;916140;-67
2021/01/13 10:57:56;;;;;;;12.47;6.50;;;;;;;;;;755129;183;925560;-67
2021/01/13 11:00:23;;;;;;;8.97;6.17;;;;;;;;;;749356;183;915752;-66
2021/01/13 11:02:51;;;;;;;14.40;5.80;;;;;;;;;;759374;183;916700;-66
2021/01/13 11:05:17;;;;;;;12.00;6.33;;;;;;;;;;755745;183;918634;-67
2021/01/13 11:07:43;;;;;;;12.67;5.90;;;;;;;;;;757691;182;919420;-67
2021/01/13 11:10:10;;;;;;;15.50;6.37;;;;;;;;;;754525;183;918922;-66
2021/01/13 11:12:36;;;;;;;7.50;5.20;;;;;;;;;;755012;184;918473;-66
2021/01/13 11:15:05;;;;;;;21.58;7.10;;;;;;;;;;755211;182;1015663;-66
2021/01/13 11:17:32;;;;;;;17.03;6.80;;;;;;;;;;753371;183;918911;-66
2021/01/13 11:19:57;;;;;;;15.70;5.07;;;;;;;;;;755427;183;1311171;-66
2021/01/13 11:22:29;;;;;;;12.20;6.10;;;;;;;;;;754362;182;919591;-66
2021/01/13 11:24:55;;;;;;;13.13;5.43;;;;;;;;;;743698;185;921667;-67
2021/01/13 11:27:22;;;;;;;10.93;5.37;;;;;;;;;;754914;186;919015;-66
2021/01/13 11:29:47;;;;;;;7.33;4.90;;;;;;;;;;743805;185;920756;-67
2021/01/13 11:32:14;;;;;;;9.50;5.27;;;;;;;;;;745043;185;918816;-66
2021/01/13 11:34:40;;;;;;;12.10;4.73;;;;;;;;;;746858;186;918695;-67
2021/01/13 11:37:09;;;;;;;12.27;4.90;;;;;;;;;;746227;186;919172;-66
2021/01/13 11:39:35;;;;;;;13.67;5.73;;;;;;;;;;737771;187;919083;-67
2021/01/13 11:42:04;;;;;;;8.17;4.83;;;;;;;;;;736101;186;1261074;-66
2021/01/13 11:44:43;;;;;;;7.32;4.78;;;;;;;;;;731733;188;919055;-66
2021/01/13 11:47:26;;;;;;;8.90;4.37;;;;;;;;;;755140;183;915489;-66
2021/01/13 11:49:53;;;;;;;10.70;5.63;;;;;;;;;;766313;182;905149;-67
2021/01/13 11:52:19;;;;;;;11.80;5.23;;;;;;;;;;751976;182;1013004;-67
2021/01/13 11:54:46;;;;;;;8.90;5.62;;;;;;;;;;754219;183;919107;-67
2021/01/13 11:57:21;;;;;;;6.77;4.83;;;;;;;;;;752081;183;918458;-67
2021/01/13 11:59:46;;;;;;;8.20;4.77;;;;;;;;;;762024;184;917992;-70
2021/01/13 12:02:14;;;;;;;8.70;4.70;;;;;;;;;;753416;184;919935;-67
2021/01/13 12:04:42;;;;;;;7.23;4.63;;;;;;;;;;756934;184;919064;-67
2021/01/13 12:07:08;;;;;;;8.93;4.90;;;;;;;;;;752921;184;918829;-67
2021/01/13 12:09:35;;;;;;;11.10;5.33;;;;;;;;;;764538;182;918962;-67
2021/01/13 12:11:59;;;;;;;13.23;6.60;;;;;;;;;;750953;183;919530;-67
2021/01/13 12:14:25;;;;;;;11.20;6.47;;;;;;;;;;758648;183;918061;-66
2021/01/13 12:16:57;;;;;;;20.27;9.93;;;;;;;;;;761830;183;919224;-67
2021/01/13 12:19:37;;;;;;;20.37;11.17;;;;;;;;;;758968;183;918926;-67
2021/01/13 12:22:03;;;;;;;27.17;12.20;;;;;;;;;;755739;183;919056;-67
2021/01/13 12:24:29;;;;;;;27.17;12.03;;;;;;;;;;756249;184;930064;-68
2021/01/13 12:26:56;;;;;;;24.80;12.77;;;;;;;;;;755648;183;918692;-66
2021/01/13 12:29:22;;;;;;;28.67;11.30;;;;;;;;;;761202;182;919353;-66
2021/01/13 12:31:48;;;;;;;24.35;11.60;;;;;;;;;;755493;182;927243;-67
2021/01/13 12:34:14;;;;;;;26.87;11.10;;;;;;;;;;748881;181;919083;-67
2021/01/13 12:36:39;;;;;;;21.90;8.98;;;;;;;;;;761450;184;918743;-67
2021/01/13 12:39:06;;;;;;;23.40;9.80;;;;;;;;;;750923;183;919212;-67
2021/01/13 12:41:32;;;;;;;18.13;8.07;;;;;;;;;;750027;184;1705189;-67
2021/01/13 12:44:01;;;;;;;13.80;7.10;;;;;;;;;;755224;184;935289;-67
2021/01/13 12:46:30;;;;;;;23.03;7.87;;;;;;;;;;757746;183;919429;-67
2021/01/13 12:48:56;;;;;;;11.43;6.17;;;;;;;;;;748120;183;1310898;-67
2021/01/13 12:51:22;;;;;;;18.30;7.90;;;;;;;;;;753905;184;918957;-67
2021/01/13 12:53:48;;;;;;;16.70;7.90;;;;;;;;;;754661;183;919107;-69
2021/01/13 12:56:20;;;;;;;11.00;6.43;;;;;;;;;;752434;184;881267;-67
2021/01/13 12:58:46;;;;;;;15.80;6.90;;;;;;;;;;753517;184;918987;-67
2021/01/13 13:01:12;;;;;;;11.57;6.70;;;;;;;;;;752911;184;918811;-67
2021/01/13 13:03:38;;;;;;;12.43;6.03;;;;;;;;;;754901;182;919064;-67
2021/01/13 13:06:03;;;;;;;8.53;5.33;;;;;;;;;;754810;182;918608;-67
2021/01/13 13:08:29;;;;;;;18.07;5.63;;;;;;;;;;751807;183;918527;-66
2021/01/13 13:10:55;;;;;;;12.07;6.73;;;;;;;;;;763737;183;918969;-67
2021/01/13 13:13:21;;;;;;;10.60;6.10;;;;;;;;;;751974;185;918843;-67
2021/01/13 13:15:47;;;;;;;7.00;4.95;;;;;;;;;;751053;184;919574;-67
2021/01/13 13:18:13;;;;;;;12.33;5.63;;;;;;;;;;761291;184;918573;-67
2021/01/13 13:20:39;;;;;;;11.10;5.70;;;;;;;;;;747922;182;1031551;-67
2021/01/13 13:23:05;;;;;;;13.07;5.70;;;;;;;;;;755295;183;918893;-68
2021/01/13 13:25:31;;;;;;;8.47;5.30;;;;;;;;;;758483;183;918370;-67
2021/01/13 13:27:57;;;;;;;8.80;5.37;;;;;;;;;;753026;184;920403;-67
2021/01/13 13:30:23;;;;;;;7.80;5.50;;;;;;;;;;757047;183;917361;-68
2021/01/13 13:32:49;;;;;;;15.43;5.20;;;;;;;;;;756036;183;916230;-68
2021/01/13 13:35:15;;;;;;;11.40;6.03;;;;;;;;;;759048;183;1225114;-67
2021/01/13 13:37:40;;;;;;;9.67;5.10;;;;;;;;;;759796;183;915848;-66
2021/01/13 13:40:08;;;;;;;9.70;5.40;;;;;;;;;;750293;183;918484;-68
2021/01/13 13:42:33;;;;;;;7.73;4.50;;;;;;;;;;759682;184;918526;-68
2021/01/13 13:44:58;;;;;;;13.30;5.93;;;;;;;;;;754323;183;918757;-68
2021/01/13 13:47:24;;;;;;;12.10;5.47;;;;;;;;;;752689;183;918941;-68
2021/01/13 13:49:50;;;;;;;11.43;5.40;;;;;;;;;;760241;184;919123;-69
2021/01/13 13:52:16;;;;;;;14.00;6.23;;;;;;;;;;753866;184;918447;-68
2021/01/13 13:54:42;;;;;;;14.53;6.67;;;;;;;;;;753846;183;926834;-68
2021/01/13 13:57:08;;;;;;;11.17;6.40;;;;;;;;;;749601;184;1217570;-68
2021/01/13 13:59:34;;;;;;;14.90;6.70;;;;;;;;;;762802;184;919457;-67
2021/01/13 14:02:00;;;;;;;16.00;9.00;;;;;;;;;;755711;183;919390;-67
2021/01/13 14:04:26;;;;;;;17.83;7.70;;;;;;;;;;756590;183;925009;-68
2021/01/13 14:06:52;;;;;;;14.17;7.83;;;;;;;;;;755170;183;919024;-68
2021/01/13 14:09:18;;;;;;;13.53;7.80;;;;;;;;;;749496;183;919150;-67
2021/01/13 14:11:43;;;;;;;12.10;7.33;;;;;;;;;;756480;183;943252;-68
2021/01/13 14:14:09;;;;;;;15.97;8.13;;;;;;;;;;758569;184;918577;-68
2021/01/13 14:16:35;;;;;;;17.13;8.10;;;;;;;;;;753173;183;1237882;-67
2021/01/13 14:19:02;;;;;;;20.00;7.50;;;;;;;;;;758766;183;918539;-68